Frontier A20N at Las Vegas on Dec 12th 2021, tail strike on landing

Last Update: December 15, 2021 / 20:13:49 GMT/Zulu time

Bookmark this article
Incident Facts

Date of incident
Dec 12, 2021

Classification
Accident

Flight number
F9-2047

Aircraft Registration
N307FR

Aircraft Type
Airbus A320-200N

ICAO Type Designator
A20N

Airport ICAO Code
KLAS

A Frontier Airlines Airbus A320-200N, registration N307FR performing flight F9-2047 from Memphis,TN to Las Vegas,NV (USA), landed on Las Vegas' runway 26L, however, it tail contacted the runway surface. The aircraft rolled out without further incident and taxied to the apron. There were no injuries, the aircraft sustained substantial damage.

The FAA reported: "AIRCRAFT INCURRED A TAIL STRIKE ON LANDING, LAS VEGAS, NV.", the damage was unknown and the occurrence was rated an incident.

On Dec 14th 2021 the FAA updated the report stating the aircraft suffered the tail strike on the flight from Memphis,TN (not Ontario,CA as earlier identified) and reported the damage was substantial and the occurrence was now rated an accident.

The aircraft is still on the ground in Las Vegas about 33 hours after landing.

On Dec 15th 2021 the NTSB reported the occurrence was rated an accident, the aircraft had sustained substantial damage, stating the tail strike occurred at 08:22Z on Dec 13th (local time 23:22L Dec 12th). The NTSB opened an investigation but did not dispatch investigators on site.



Metars:
KLAS 131056Z 21003KT 10SM BKN250 02/M09 A3002 RMK AO2 SLP167 T00221089=
KLAS 130956Z 00000KT 10SM BKN250 03/M09 A3001 RMK AO2 SLP165 T00281094=
KLAS 130856Z 20005KT 10SM SCT250 03/M09 A3001 RMK AO2 SLP165 T00281094 58005=
KLAS 130756Z 21005KT 10SM FEW250 04/M09 A3002 RMK AO2 SLP168 T00391094 401170006=
KLAS 130656Z 23004KT 10SM FEW250 04/M09 A3003 RMK AO2 SLP170 T00391094=
KLAS 130556Z 23004KT 10SM FEW160 SCT250 05/M09 A3002 RMK AO2 SLP170 T00501089 10111 20044 51001=
KLAS 130456Z 29005KT 10SM FEW160 SCT250 06/M09 A3002 RMK AO2 SLP171 T00611089=
KLAS 130356Z 25003KT 10SM FEW160 SCT250 06/M09 A3002 RMK AO2 SLP171 T00611089=
Aircraft Registration Data
Registration mark
N307FR
Country of Registration
United States
Date of Registration
HccdAchgepccpbhhh Subscribe to unlock
Manufacturer
AIRBUS
Aircraft Model / Type
A320-251N
Number of Seats
ICAO Aircraft Type
A20N
Year of Manufacture
Serial Number
Aircraft Address / Mode S Code (HEX)
Engine Count
Engine Manufacturer
Engine Model
Engine Type
Pounds of Thrust
Main Owner
Ej cgmqqimpbefjegmpiimng nenpln d gikdApqk lqehdgggekqifqgbjjiphjqqA jhj hbkidhbmlicckidlcdpieAhekbilAch gjfl Subscribe to unlock
Incident Facts

Date of incident
Dec 12, 2021

Classification
Accident

Flight number
F9-2047

Aircraft Registration
N307FR

Aircraft Type
Airbus A320-200N

ICAO Type Designator
A20N

Airport ICAO Code
KLAS

This article is published under license from Avherald.com. © of text by Avherald.com.
Article source

You can read 4 more free articles without a subscription.

Subscribe now and continue reading without any limits!

Are you a subscriber?
Login
Subscribe

Read unlimited articles and receive our daily update briefing. Gain better insights into what is happening in commercial aviation safety.

Free newsletter

Want to know more and stay ahead? Get our free weekly newsletter and join 5152 existing subscribers.

By subscribing, you accept our terms and conditions and confirm that you've read our privacy policy.

Send tip

Support AeroInside by sending a small tip amount.

Related articles

Newest articles

Subscribe today

Are you researching aviation incidents? Get access to AeroInside Insights, unlimited read access and receive the daily newsletter.

Pick your plan and subscribe

Partner

Blockaviation logo

A new way to document and demonstrate airworthiness compliance and aircraft value. Find out more.

Virtual Speech logo

ELITE Simulation Solutions is a leading global provider of Flight Simulation Training Devices, IFR training software as well as flight controls and related services. Find out more.

Get updates

Never miss an article from AeroInside. Subscribe to our free weekly newsletter and join 5152 existing subscribers.

By subscribing, you accept our terms and conditions and that you've read our privacy policy.

AeroInside Blog
Popular aircraft
Airbus A320
Boeing 737-800
Boeing 737-800 MAX
Popular airlines
American Airlines
United
Delta
Air Canada
Lufthansa
British Airways